sensor_id;sensor_type;location;lat;lon;timestamp;pressure;altitude;pressure_sealevel;temperature;humidity
53719;BME280;39616;48.872;9.390;2023-12-28T00:01:25;98410.00;;;6.19;58.81
53719;BME280;39616;48.872;9.390;2023-12-28T00:03:56;98409.47;;;6.32;58.96
53719;BME280;39616;48.872;9.390;2023-12-28T00:06:26;98398.50;;;6.59;57.29
53719;BME280;39616;48.872;9.390;2023-12-28T00:08:56;98393.63;;;6.92;56.36
53719;BME280;39616;48.872;9.390;2023-12-28T00:11:26;98398.19;;;7.12;55.25
53719;BME280;39616;48.872;9.390;2023-12-28T00:13:57;98396.81;;;7.30;54.58
53719;BME280;39616;48.872;9.390;2023-12-28T00:16:27;98408.63;;;7.59;53.48
53719;BME280;39616;48.872;9.390;2023-12-28T00:18:58;98409.03;;;7.92;51.65
53719;BME280;39616;48.872;9.390;2023-12-28T00:21:28;98414.13;;;8.04;52.07
53719;BME280;39616;48.872;9.390;2023-12-28T00:23:58;98412.13;;;8.19;50.84
53719;BME280;39616;48.872;9.390;2023-12-28T00:26:28;98411.28;;;8.29;51.01
53719;BME280;39616;48.872;9.390;2023-12-28T00:28:59;98412.56;;;8.47;50.16
53719;BME280;39616;48.872;9.390;2023-12-28T00:31:29;98415.00;;;8.43;51.46
53719;BME280;39616;48.872;9.390;2023-12-28T00:33:59;98420.94;;;8.45;50.73
53719;BME280;39616;48.872;9.390;2023-12-28T00:36:30;98410.66;;;8.42;51.13
53719;BME280;39616;48.872;9.390;2023-12-28T00:39:00;98425.84;;;8.33;50.72
53719;BME280;39616;48.872;9.390;2023-12-28T00:41:30;98426.94;;;8.27;51.23
53719;BME280;39616;48.872;9.390;2023-12-28T00:44:01;98429.41;;;8.23;50.46
53719;BME280;39616;48.872;9.390;2023-12-28T00:46:32;98432.72;;;8.10;51.57
53719;BME280;39616;48.872;9.390;2023-12-28T00:49:02;98431.13;;;8.04;51.48
53719;BME280;39616;48.872;9.390;2023-12-28T00:51:32;98425.22;;;7.97;51.92
53719;BME280;39616;48.872;9.390;2023-12-28T00:54:03;98422.28;;;7.88;52.29
53719;BME280;39616;48.872;9.390;2023-12-28T00:56:33;98429.56;;;7.88;52.00
53719;BME280;39616;48.872;9.390;2023-12-28T00:59:03;98422.78;;;7.90;52.05
53719;BME280;39616;48.872;9.390;2023-12-28T01:01:33;98426.81;;;7.98;51.80
53719;BME280;39616;48.872;9.390;2023-12-28T01:04:04;98417.66;;;7.99;52.25
53719;BME280;39616;48.872;9.390;2023-12-28T01:06:34;98432.03;;;7.84;52.67
53719;BME280;39616;48.872;9.390;2023-12-28T01:09:06;98432.53;;;7.86;52.10
53719;BME280;39616;48.872;9.390;2023-12-28T01:11:36;98429.88;;;7.81;52.73
53719;BME280;39616;48.872;9.390;2023-12-28T01:14:07;98429.03;;;7.86;51.54
53719;BME280;39616;48.872;9.390;2023-12-28T01:16:37;98430.13;;;7.80;52.48
53719;BME280;39616;48.872;9.390;2023-12-28T01:19:09;98432.03;;;7.79;52.03
53719;BME280;39616;48.872;9.390;2023-12-28T01:21:39;98439.09;;;7.70;52.71
53719;BME280;39616;48.872;9.390;2023-12-28T01:24:10;98433.38;;;7.82;52.15
53719;BME280;39616;48.872;9.390;2023-12-28T01:26:40;98434.75;;;7.74;52.76
53719;BME280;39616;48.872;9.390;2023-12-28T01:29:10;98438.78;;;7.82;52.54
53719;BME280;39616;48.872;9.390;2023-12-28T01:31:40;98434.16;;;7.87;51.81
53719;BME280;39616;48.872;9.390;2023-12-28T01:34:11;98431.16;;;7.94;52.20
53719;BME280;39616;48.872;9.390;2023-12-28T01:36:42;98441.69;;;7.90;52.19
53719;BME280;39616;48.872;9.390;2023-12-28T01:39:14;98441.19;;;7.88;51.81
53719;BME280;39616;48.872;9.390;2023-12-28T01:41:45;98442.53;;;7.86;52.15
53719;BME280;39616;48.872;9.390;2023-12-28T01:44:16;98448.75;;;7.86;52.13
53719;BME280;39616;48.872;9.390;2023-12-28T01:46:46;98453.88;;;7.83;52.01
53719;BME280;39616;48.872;9.390;2023-12-28T01:49:17;98459.03;;;7.69;52.38
53719;BME280;39616;48.872;9.390;2023-12-28T01:51:48;98458.19;;;7.84;51.48
53719;BME280;39616;48.872;9.390;2023-12-28T01:54:19;98468.75;;;7.75;52.24
53719;BME280;39616;48.872;9.390;2023-12-28T01:56:49;98471.19;;;7.71;52.90
53719;BME280;39616;48.872;9.390;2023-12-28T01:59:20;98470.13;;;7.67;52.17
53719;BME280;39616;48.872;9.390;2023-12-28T02:01:50;98469.31;;;7.62;52.41
53719;BME280;39616;48.872;9.390;2023-12-28T02:04:21;98473.38;;;7.59;52.96
53719;BME280;39616;48.872;9.390;2023-12-28T02:06:59;98472.84;;;7.52;53.09
53719;BME280;39616;48.872;9.390;2023-12-28T02:09:30;98478.78;;;7.54;52.68
53719;BME280;39616;48.872;9.390;2023-12-28T02:12:00;98480.41;;;7.45;52.65
53719;BME280;39616;48.872;9.390;2023-12-28T02:14:31;98486.06;;;7.43;53.73
53719;BME280;39616;48.872;9.390;2023-12-28T02:17:06;98492.56;;;7.53;53.83
53719;BME280;39616;48.872;9.390;2023-12-28T02:19:50;98486.88;;;7.54;52.96
53719;BME280;39616;48.872;9.390;2023-12-28T02:22:23;98487.19;;;7.47;54.24
53719;BME280;39616;48.872;9.390;2023-12-28T02:27:42;98488.78;;;7.38;53.92
53719;BME280;39616;48.872;9.390;2023-12-28T02:30:14;98490.13;;;7.46;53.06
53719;BME280;39616;48.872;9.390;2023-12-28T02:33:07;98484.75;;;7.41;54.56
53719;BME280;39616;48.872;9.390;2023-12-28T02:35:47;98483.38;;;7.48;53.46
53719;BME280;39616;48.872;9.390;2023-12-28T02:38:18;98491.47;;;7.59;53.68
53719;BME280;39616;48.872;9.390;2023-12-28T02:40:50;98489.03;;;7.62;52.46
53719;BME280;39616;48.872;9.390;2023-12-28T02:43:21;98474.97;;;7.70;52.31
53719;BME280;39616;48.872;9.390;2023-12-28T02:45:52;98484.44;;;7.63;53.39
53719;BME280;39616;48.872;9.390;2023-12-28T02:48:22;98487.41;;;7.51;53.93
53719;BME280;39616;48.872;9.390;2023-12-28T02:50:53;98481.25;;;7.40;54.38
53719;BME280;39616;48.872;9.390;2023-12-28T02:53:23;98487.69;;;7.49;53.82
53719;BME280;39616;48.872;9.390;2023-12-28T02:55:53;98485.25;;;7.63;52.88
53719;BME280;39616;48.872;9.390;2023-12-28T02:58:23;98486.06;;;7.64;53.25
53719;BME280;39616;48.872;9.390;2023-12-28T03:00:54;98489.53;;;7.74;53.34
53719;BME280;39616;48.872;9.390;2023-12-28T03:03:24;98486.28;;;7.83;51.91
53719;BME280;39616;48.872;9.390;2023-12-28T03:05:54;98490.59;;;7.89;52.73
53719;BME280;39616;48.872;9.390;2023-12-28T03:08:24;98494.66;;;7.81;52.95
53719;BME280;39616;48.872;9.390;2023-12-28T03:10:55;98492.00;;;7.66;53.38
53719;BME280;39616;48.872;9.390;2023-12-28T03:13:25;98495.78;;;7.60;53.63
53719;BME280;39616;48.872;9.390;2023-12-28T03:15:56;98493.06;;;7.55;53.91
53719;BME280;39616;48.872;9.390;2023-12-28T03:18:26;98484.47;;;7.47;54.39
53719;BME280;39616;48.872;9.390;2023-12-28T03:20:56;98489.31;;;7.35;54.94
53719;BME280;39616;48.872;9.390;2023-12-28T03:23:26;98485.84;;;7.30;55.02
53719;BME280;39616;48.872;9.390;2023-12-28T03:25:57;98490.13;;;7.46;53.61
53719;BME280;39616;48.872;9.390;2023-12-28T03:28:27;98491.47;;;7.48;54.04
53719;BME280;39616;48.872;9.390;2023-12-28T03:30:57;98477.16;;;7.53;53.51
53719;BME280;39616;48.872;9.390;2023-12-28T03:33:29;98480.16;;;7.52;54.05
53719;BME280;39616;48.872;9.390;2023-12-28T03:35:59;98485.22;;;7.68;52.87
53719;BME280;39616;48.872;9.390;2023-12-28T03:38:29;98480.34;;;7.75;53.58
53719;BME280;39616;48.872;9.390;2023-12-28T03:41:00;98488.16;;;7.92;52.54
53719;BME280;39616;48.872;9.390;2023-12-28T03:43:30;98477.31;;;7.97;53.49
53719;BME280;39616;48.872;9.390;2023-12-28T03:46:00;98474.63;;;7.97;53.07
53719;BME280;39616;48.872;9.390;2023-12-28T03:48:30;98468.69;;;7.95;54.08
53719;BME280;39616;48.872;9.390;2023-12-28T03:51:01;98473.53;;;8.04;52.31
53719;BME280;39616;48.872;9.390;2023-12-28T03:53:31;98468.91;;;8.14;51.75
53719;BME280;39616;48.872;9.390;2023-12-28T03:56:02;98461.31;;;8.16;52.52
53719;BME280;39616;48.872;9.390;2023-12-28T03:58:32;98461.59;;;8.10;52.32
53719;BME280;39616;48.872;9.390;2023-12-28T04:01:03;98460.16;;;8.28;51.52
53719;BME280;39616;48.872;9.390;2023-12-28T04:03:33;98456.13;;;8.30;51.82
53719;BME280;39616;48.872;9.390;2023-12-28T04:06:04;98454.72;;;8.43;51.49
53719;BME280;39616;48.872;9.390;2023-12-28T04:08:34;98455.84;;;8.27;52.22
53719;BME280;39616;48.872;9.390;2023-12-28T04:11:04;98454.84;;;8.12;52.88
53719;BME280;39616;48.872;9.390;2023-12-28T04:13:36;98464.38;;;7.99;53.46
53719;BME280;39616;48.872;9.390;2023-12-28T04:16:06;98460.09;;;7.88;53.71
53719;BME280;39616;48.872;9.390;2023-12-28T04:18:37;98466.56;;;7.82;53.15
53719;BME280;39616;48.872;9.390;2023-12-28T04:21:12;98473.06;;;7.81;53.02
53719;BME280;39616;48.872;9.390;2023-12-28T04:23:42;98473.88;;;7.77;53.32
53719;BME280;39616;48.872;9.390;2023-12-28T04:26:13;98482.53;;;7.73;53.40
53719;BME280;39616;48.872;9.390;2023-12-28T04:28:43;98473.09;;;7.71;53.68
53719;BME280;39616;48.872;9.390;2023-12-28T04:31:13;98468.78;;;7.70;53.38
53719;BME280;39616;48.872;9.390;2023-12-28T04:33:44;98473.59;;;7.78;53.63
53719;BME280;39616;48.872;9.390;2023-12-28T04:36:14;98471.44;;;7.80;53.53
53719;BME280;39616;48.872;9.390;2023-12-28T04:38:44;98463.31;;;7.90;53.44
53719;BME280;39616;48.872;9.390;2023-12-28T04:41:16;98460.59;;;7.95;54.24
53719;BME280;39616;48.872;9.390;2023-12-28T04:43:47;98446.53;;;8.04;54.47
53719;BME280;39616;48.872;9.390;2023-12-28T04:46:17;98449.69;;;8.16;53.25
53719;BME280;39616;48.872;9.390;2023-12-28T04:48:47;98447.50;;;8.23;53.11
53719;BME280;39616;48.872;9.390;2023-12-28T04:51:17;98448.81;;;8.36;52.98
53719;BME280;39616;48.872;9.390;2023-12-28T04:53:48;98446.91;;;8.36;53.02
53719;BME280;39616;48.872;9.390;2023-12-28T04:56:19;98443.66;;;8.39;53.54
53719;BME280;39616;48.872;9.390;2023-12-28T04:58:49;98446.91;;;8.31;53.37
53719;BME280;39616;48.872;9.390;2023-12-28T05:01:20;98438.03;;;8.26;53.52
53719;BME280;39616;48.872;9.390;2023-12-28T05:03:51;98442.66;;;8.20;53.75
53719;BME280;39616;48.872;9.390;2023-12-28T05:06:21;98440.81;;;8.10;53.65
53719;BME280;39616;48.872;9.390;2023-12-28T05:08:51;98444.38;;;8.01;54.69
53719;BME280;39616;48.872;9.390;2023-12-28T05:11:21;98439.25;;;7.94;54.73
53719;BME280;39616;48.872;9.390;2023-12-28T05:13:52;98446.00;;;7.91;54.21
53719;BME280;39616;48.872;9.390;2023-12-28T05:16:22;98466.00;;;7.90;54.57
53719;BME280;39616;48.872;9.390;2023-12-28T05:18:53;98467.59;;;7.91;53.96
53719;BME280;39616;48.872;9.390;2023-12-28T05:21:23;98474.91;;;7.91;54.81
53719;BME280;39616;48.872;9.390;2023-12-28T05:23:53;98467.59;;;7.96;54.11
53719;BME280;39616;48.872;9.390;2023-12-28T05:26:23;98471.31;;;8.16;53.52
53719;BME280;39616;48.872;9.390;2023-12-28T05:28:54;98471.22;;;8.36;53.13
53719;BME280;39616;48.872;9.390;2023-12-28T05:31:24;98479.88;;;8.43;54.12
53719;BME280;39616;48.872;9.390;2023-12-28T05:33:55;98476.28;;;8.53;52.67
53719;BME280;39616;48.872;9.390;2023-12-28T05:36:25;98478.63;;;8.65;52.50
53719;BME280;39616;48.872;9.390;2023-12-28T05:38:55;98489.19;;;8.61;54.00
53719;BME280;39616;48.872;9.390;2023-12-28T05:41:26;98503.31;;;8.53;54.71
53719;BME280;39616;48.872;9.390;2023-12-28T05:43:56;98502.19;;;8.59;53.51
53719;BME280;39616;48.872;9.390;2023-12-28T05:46:26;98503.25;;;8.63;53.46
53719;BME280;39616;48.872;9.390;2023-12-28T05:48:57;98508.88;;;8.72;53.60
53719;BME280;39616;48.872;9.390;2023-12-28T05:51:27;98502.66;;;8.77;53.81
53719;BME280;39616;48.872;9.390;2023-12-28T05:53:57;98499.63;;;8.83;53.80
53719;BME280;39616;48.872;9.390;2023-12-28T05:56:28;98504.47;;;8.86;53.73
53719;BME280;39616;48.872;9.390;2023-12-28T05:58:58;98508.56;;;8.79;54.74
53719;BME280;39616;48.872;9.390;2023-12-28T06:01:29;98514.03;;;8.68;55.73
53719;BME280;39616;48.872;9.390;2023-12-28T06:04:00;98508.06;;;8.71;55.47
53719;BME280;39616;48.872;9.390;2023-12-28T06:06:32;98506.47;;;8.70;57.34
53719;BME280;39616;48.872;9.390;2023-12-28T06:09:03;98506.56;;;8.55;58.02
53719;BME280;39616;48.872;9.390;2023-12-28T06:11:33;98512.56;;;8.47;58.13
53719;BME280;39616;48.872;9.390;2023-12-28T06:14:04;98520.38;;;8.49;58.28
53719;BME280;39616;48.872;9.390;2023-12-28T06:16:34;98527.16;;;8.41;58.69
53719;BME280;39616;48.872;9.390;2023-12-28T06:19:05;98521.97;;;8.50;58.20
53719;BME280;39616;48.872;9.390;2023-12-28T06:21:36;98527.69;;;8.43;58.60
53719;BME280;39616;48.872;9.390;2023-12-28T06:24:06;98535.25;;;8.41;58.77
53719;BME280;39616;48.872;9.390;2023-12-28T06:26:43;98542.03;;;8.38;59.45
53719;BME280;39616;48.872;9.390;2023-12-28T06:29:13;98536.63;;;8.33;59.68
53719;BME280;39616;48.872;9.390;2023-12-28T06:31:44;98540.41;;;8.37;59.03
53719;BME280;39616;48.872;9.390;2023-12-28T06:34:14;98535.78;;;8.43;58.93
53719;BME280;39616;48.872;9.390;2023-12-28T06:36:44;98534.72;;;8.44;59.15
53719;BME280;39616;48.872;9.390;2023-12-28T06:39:15;98527.94;;;8.52;59.50
53719;BME280;39616;48.872;9.390;2023-12-28T06:41:48;98530.59;;;8.57;59.74
53719;BME280;39616;48.872;9.390;2023-12-28T06:44:19;98528.44;;;8.59;59.76
53719;BME280;39616;48.872;9.390;2023-12-28T06:46:49;98536.53;;;8.54;60.75
53719;BME280;39616;48.872;9.390;2023-12-28T06:49:20;98534.97;;;8.48;60.93
53719;BME280;39616;48.872;9.390;2023-12-28T06:51:50;98526.06;;;8.47;61.00
53719;BME280;39616;48.872;9.390;2023-12-28T06:54:21;98532.03;;;8.39;61.57
53719;BME280;39616;48.872;9.390;2023-12-28T06:56:51;98548.22;;;8.34;62.63
53719;BME280;39616;48.872;9.390;2023-12-28T06:59:22;98549.88;;;8.30;62.83
53719;BME280;39616;48.872;9.390;2023-12-28T07:01:52;98557.19;;;8.29;63.94
53719;BME280;39616;48.872;9.390;2023-12-28T07:04:22;98551.78;;;8.29;62.63
53719;BME280;39616;48.872;9.390;2023-12-28T07:06:55;98547.97;;;8.30;62.87
53719;BME280;39616;48.872;9.390;2023-12-28T07:09:25;98553.38;;;8.30;62.68
53719;BME280;39616;48.872;9.390;2023-12-28T07:11:56;98551.47;;;8.36;62.25
53719;BME280;39616;48.872;9.390;2023-12-28T07:14:26;98557.94;;;8.35;62.72
53719;BME280;39616;48.872;9.390;2023-12-28T07:16:56;98552.84;;;8.33;63.94
53719;BME280;39616;48.872;9.390;2023-12-28T07:19:26;98552.84;;;8.28;64.18
53719;BME280;39616;48.872;9.390;2023-12-28T07:21:57;98565.03;;;8.26;65.35
53719;BME280;39616;48.872;9.390;2023-12-28T07:24:28;98563.66;;;8.23;65.49
53719;BME280;39616;48.872;9.390;2023-12-28T07:26:58;98576.38;;;8.22;66.02
53719;BME280;39616;48.872;9.390;2023-12-28T07:29:28;98579.06;;;8.22;65.90
53719;BME280;39616;48.872;9.390;2023-12-28T07:31:58;98569.59;;;8.40;66.01
53719;BME280;39616;48.872;9.390;2023-12-28T07:34:29;98573.63;;;8.43;66.81
53719;BME280;39616;48.872;9.390;2023-12-28T07:36:59;98571.19;;;8.31;68.14
53719;BME280;39616;48.872;9.390;2023-12-28T07:39:29;98579.34;;;8.16;69.00
53719;BME280;39616;48.872;9.390;2023-12-28T07:42:00;98578.03;;;7.98;69.59
53719;BME280;39616;48.872;9.390;2023-12-28T07:44:30;98586.69;;;8.10;67.17
53719;BME280;39616;48.872;9.390;2023-12-28T07:47:00;98587.75;;;8.14;66.12
53719;BME280;39616;48.872;9.390;2023-12-28T07:49:31;98585.31;;;8.03;66.73
53719;BME280;39616;48.872;9.390;2023-12-28T07:52:01;98592.38;;;7.93;66.37
53719;BME280;39616;48.872;9.390;2023-12-28T07:54:32;98590.75;;;7.92;65.94
53719;BME280;39616;48.872;9.390;2023-12-28T07:57:03;98599.13;;;7.91;65.84
53719;BME280;39616;48.872;9.390;2023-12-28T07:59:33;98606.94;;;7.87;66.74
53719;BME280;39616;48.872;9.390;2023-12-28T08:02:04;98605.59;;;7.90;68.01
53719;BME280;39616;48.872;9.390;2023-12-28T08:04:35;98601.28;;;7.89;67.41
53719;BME280;39616;48.872;9.390;2023-12-28T08:07:05;98600.19;;;7.90;67.28
53719;BME280;39616;48.872;9.390;2023-12-28T08:09:37;98599.09;;;8.01;66.76
53719;BME280;39616;48.872;9.390;2023-12-28T08:12:07;98592.91;;;8.01;65.66
53719;BME280;39616;48.872;9.390;2023-12-28T08:14:37;98594.78;;;7.95;67.11
53719;BME280;39616;48.872;9.390;2023-12-28T08:17:07;98605.03;;;7.98;68.60
53719;BME280;39616;48.872;9.390;2023-12-28T08:19:38;98589.66;;;7.98;67.63
53719;BME280;39616;48.872;9.390;2023-12-28T08:22:08;98594.78;;;7.95;70.17
53719;BME280;39616;48.872;9.390;2023-12-28T08:24:38;98597.22;;;7.91;72.84
53719;BME280;39616;48.872;9.390;2023-12-28T08:27:09;98588.88;;;7.83;71.90
53719;BME280;39616;48.872;9.390;2023-12-28T08:29:40;98589.41;;;7.85;72.34
53719;BME280;39616;48.872;9.390;2023-12-28T08:32:12;98587.78;;;7.84;71.88
53719;BME280;39616;48.872;9.390;2023-12-28T08:34:42;98577.53;;;7.86;72.48
53719;BME280;39616;48.872;9.390;2023-12-28T08:37:13;98587.50;;;7.95;71.81
53719;BME280;39616;48.872;9.390;2023-12-28T08:39:43;98577.22;;;8.03;70.30
53719;BME280;39616;48.872;9.390;2023-12-28T08:42:13;98583.72;;;8.07;71.73
53719;BME280;39616;48.872;9.390;2023-12-28T08:44:44;98589.91;;;8.07;71.45
53719;BME280;39616;48.872;9.390;2023-12-28T08:47:14;98590.97;;;8.06;72.06
53719;BME280;39616;48.872;9.390;2023-12-28T08:49:44;98597.19;;;8.12;72.70
53719;BME280;39616;48.872;9.390;2023-12-28T08:52:14;98603.69;;;8.11;72.53
53719;BME280;39616;48.872;9.390;2023-12-28T08:54:45;98607.44;;;8.10;72.40
53719;BME280;39616;48.872;9.390;2023-12-28T08:57:15;98602.31;;;8.18;71.12
53719;BME280;39616;48.872;9.390;2023-12-28T08:59:45;98597.72;;;8.19;72.79
53719;BME280;39616;48.872;9.390;2023-12-28T09:02:16;98591.22;;;8.20;71.65
53719;BME280;39616;48.872;9.390;2023-12-28T09:04:46;98602.28;;;8.23;72.37
53719;BME280;39616;48.872;9.390;2023-12-28T09:07:16;98607.97;;;8.27;73.10
53719;BME280;39616;48.872;9.390;2023-12-28T09:09:49;98599.03;;;8.32;72.62
53719;BME280;39616;48.872;9.390;2023-12-28T09:12:20;98596.88;;;8.34;72.72
53719;BME280;39616;48.872;9.390;2023-12-28T09:14:52;98600.66;;;8.38;73.29
53719;BME280;39616;48.872;9.390;2023-12-28T09:17:23;98593.63;;;8.37;73.02
53719;BME280;39616;48.872;9.390;2023-12-28T09:19:53;98595.25;;;8.33;74.81
53719;BME280;39616;48.872;9.390;2023-12-28T09:22:24;98602.56;;;8.27;75.58
53719;BME280;39616;48.872;9.390;2023-12-28T09:24:54;98599.59;;;8.23;75.57
53719;BME280;39616;48.872;9.390;2023-12-28T09:27:24;98599.06;;;8.21;76.02
53719;BME280;39616;48.872;9.390;2023-12-28T09:29:55;98599.88;;;8.22;76.25
53719;BME280;39616;48.872;9.390;2023-12-28T09:32:25;98598.25;;;8.21;76.11
53719;BME280;39616;48.872;9.390;2023-12-28T09:34:56;98603.91;;;8.24;77.55
53719;BME280;39616;48.872;9.390;2023-12-28T09:37:26;98607.97;;;8.27;80.46
53719;BME280;39616;48.872;9.390;2023-12-28T09:39:56;98596.63;;;8.25;81.22
53719;BME280;39616;48.872;9.390;2023-12-28T09:42:33;98601.72;;;8.32;82.47
53719;BME280;39616;48.872;9.390;2023-12-28T09:45:06;98599.88;;;8.37;86.79
53719;BME280;39616;48.872;9.390;2023-12-28T09:47:37;98595.22;;;8.43;89.48
53719;BME280;39616;48.872;9.390;2023-12-28T09:50:07;98601.16;;;8.50;91.74
53719;BME280;39616;48.872;9.390;2023-12-28T09:52:38;98602.00;;;8.51;92.13
53719;BME280;39616;48.872;9.390;2023-12-28T09:55:08;98605.75;;;8.55;90.57
53719;BME280;39616;48.872;9.390;2023-12-28T09:57:39;98602.44;;;8.68;88.76
53719;BME280;39616;48.872;9.390;2023-12-28T10:00:11;98612.13;;;8.84;87.98
53719;BME280;39616;48.872;9.390;2023-12-28T10:02:44;98615.25;;;9.02;84.71
53719;BME280;39616;48.872;9.390;2023-12-28T10:05:14;98613.81;;;9.19;84.26
53719;BME280;39616;48.872;9.390;2023-12-28T10:07:45;98617.31;;;9.25;84.16
53719;BME280;39616;48.872;9.390;2023-12-28T10:10:17;98613.53;;;9.21;84.95
53719;BME280;39616;48.872;9.390;2023-12-28T10:12:47;98618.22;;;9.10;82.93
53719;BME280;39616;48.872;9.390;2023-12-28T10:15:18;98627.13;;;9.11;84.48
53719;BME280;39616;48.872;9.390;2023-12-28T10:17:48;98627.88;;;9.16;81.79
53719;BME280;39616;48.872;9.390;2023-12-28T10:20:19;98630.09;;;9.09;84.13
53719;BME280;39616;48.872;9.390;2023-12-28T10:22:50;98632.63;;;8.90;85.92
53719;BME280;39616;48.872;9.390;2023-12-28T10:25:21;98637.78;;;8.87;86.51
53719;BME280;39616;48.872;9.390;2023-12-28T10:27:52;98626.19;;;8.81;83.47
53719;BME280;39616;48.872;9.390;2023-12-28T10:30:23;98628.38;;;8.74;84.63
53719;BME280;39616;48.872;9.390;2023-12-28T10:32:53;98631.06;;;8.79;85.38
53719;BME280;39616;48.872;9.390;2023-12-28T10:35:24;98634.34;;;8.71;84.48
53719;BME280;39616;48.872;9.390;2023-12-28T10:37:55;98624.59;;;8.75;84.22
53719;BME280;39616;48.872;9.390;2023-12-28T10:40:29;98623.78;;;8.75;84.48
53719;BME280;39616;48.872;9.390;2023-12-28T10:43:06;98619.19;;;8.75;83.96
53719;BME280;39616;48.872;9.390;2023-12-28T10:45:39;98617.81;;;8.73;83.23
53719;BME280;39616;48.872;9.390;2023-12-28T10:48:11;98609.41;;;8.79;81.91
53719;BME280;39616;48.872;9.390;2023-12-28T10:50:43;98598.66;;;8.74;80.88
53719;BME280;39616;48.872;9.390;2023-12-28T10:58:48;98594.84;;;8.80;83.09
53719;BME280;39616;48.872;9.390;2023-12-28T11:01:26;98599.75;;;8.73;83.85
53719;BME280;39616;48.872;9.390;2023-12-28T11:04:02;98595.69;;;8.70;82.95
53719;BME280;39616;48.872;9.390;2023-12-28T11:06:35;98597.53;;;8.80;83.50
53719;BME280;39616;48.872;9.390;2023-12-28T11:09:06;98589.66;;;8.89;82.50
53719;BME280;39616;48.872;9.390;2023-12-28T11:11:37;98575.53;;;8.97;81.92
53719;BME280;39616;48.872;9.390;2023-12-28T11:14:08;98574.44;;;8.98;81.06
53719;BME280;39616;48.872;9.390;2023-12-28T11:16:40;98576.56;;;9.06;81.39
53719;BME280;39616;48.872;9.390;2023-12-28T11:19:11;98581.09;;;9.16;81.24
53719;BME280;39616;48.872;9.390;2023-12-28T11:21:42;98580.59;;;9.09;81.59
53719;BME280;39616;48.872;9.390;2023-12-28T11:24:13;98587.94;;;9.03;82.65
53719;BME280;39616;48.872;9.390;2023-12-28T11:26:52;98580.69;;;8.93;82.90
53719;BME280;39616;48.872;9.390;2023-12-28T11:29:23;98577.47;;;8.91;83.19
53719;BME280;39616;48.872;9.390;2023-12-28T11:32:00;98566.91;;;8.90;82.28
53719;BME280;39616;48.872;9.390;2023-12-28T11:34:33;98566.41;;;8.88;81.82
53719;BME280;39616;48.872;9.390;2023-12-28T11:37:08;98566.16;;;8.84;80.53
53719;BME280;39616;48.872;9.390;2023-12-28T11:39:41;98566.91;;;8.95;79.47
53719;BME280;39616;48.872;9.390;2023-12-28T11:42:19;98559.56;;;9.01;80.24
53719;BME280;39616;48.872;9.390;2023-12-28T11:44:56;98560.09;;;9.03;81.32
53719;BME280;39616;48.872;9.390;2023-12-28T11:47:26;98562.25;;;9.01;82.08
53719;BME280;39616;48.872;9.390;2023-12-28T11:50:09;98564.44;;;8.99;83.55
53719;BME280;39616;48.872;9.390;2023-12-28T11:52:40;98563.66;;;8.93;84.04
53719;BME280;39616;48.872;9.390;2023-12-28T11:55:10;98562.59;;;8.89;83.46
53719;BME280;39616;48.872;9.390;2023-12-28T11:57:40;98553.38;;;8.95;83.58
53719;BME280;39616;48.872;9.390;2023-12-28T12:00:12;98550.13;;;8.93;84.19
53719;BME280;39616;48.872;9.390;2023-12-28T12:02:45;98549.81;;;9.00;85.00
53719;BME280;39616;48.872;9.390;2023-12-28T12:05:15;98542.22;;;9.02;85.60
53719;BME280;39616;48.872;9.390;2023-12-28T12:07:45;98536.56;;;8.98;86.16
53719;BME280;39616;48.872;9.390;2023-12-28T12:10:16;98546.00;;;9.06;87.68
53719;BME280;39616;48.872;9.390;2023-12-28T12:12:46;98542.47;;;9.05;85.94
53719;BME280;39616;48.872;9.390;2023-12-28T12:15:17;98547.31;;;9.08;86.74
53719;BME280;39616;48.872;9.390;2023-12-28T12:17:48;98544.91;;;9.07;85.43
53719;BME280;39616;48.872;9.390;2023-12-28T12:20:19;98543.78;;;9.13;85.25
53719;BME280;39616;48.872;9.390;2023-12-28T12:22:50;98547.50;;;9.22;86.44
53719;BME280;39616;48.872;9.390;2023-12-28T12:25:20;98537.50;;;9.23;85.22
53719;BME280;39616;48.872;9.390;2023-12-28T12:27:51;98537.97;;;9.30;85.76
53719;BME280;39616;48.872;9.390;2023-12-28T12:30:21;98540.13;;;9.28;85.63
53719;BME280;39616;48.872;9.390;2023-12-28T12:32:51;98532.75;;;9.38;85.77
53719;BME280;39616;48.872;9.390;2023-12-28T12:35:22;98509.22;;;9.39;85.83
53719;BME280;39616;48.872;9.390;2023-12-28T12:37:53;98516.75;;;9.42;86.17
53719;BME280;39616;48.872;9.390;2023-12-28T12:40:25;98521.91;;;9.43;85.81
53719;BME280;39616;48.872;9.390;2023-12-28T12:42:55;98521.09;;;9.43;85.71
53719;BME280;39616;48.872;9.390;2023-12-28T12:45:26;98514.34;;;9.40;86.59
53719;BME280;39616;48.872;9.390;2023-12-28T12:47:59;98508.41;;;9.38;86.61
53719;BME280;39616;48.872;9.390;2023-12-28T12:50:31;98513.56;;;9.35;87.65
53719;BME280;39616;48.872;9.390;2023-12-28T12:53:04;98502.84;;;9.25;89.16
53719;BME280;39616;48.872;9.390;2023-12-28T12:55:36;98508.28;;;9.19;88.93
53719;BME280;39616;48.872;9.390;2023-12-28T12:58:12;98498.56;;;9.18;88.79
53719;BME280;39616;48.872;9.390;2023-12-28T13:00:45;98504.22;;;9.22;86.96
53719;BME280;39616;48.872;9.390;2023-12-28T13:03:15;98507.00;;;9.12;87.67
53719;BME280;39616;48.872;9.390;2023-12-28T13:05:45;98510.31;;;9.04;87.42
53719;BME280;39616;48.872;9.390;2023-12-28T13:08:16;98525.19;;;9.01;88.74
53719;BME280;39616;48.872;9.390;2023-12-28T13:10:46;98518.41;;;9.04;89.62
53719;BME280;39616;48.872;9.390;2023-12-28T13:13:16;98519.22;;;9.04;91.23
53719;BME280;39616;48.872;9.390;2023-12-28T13:15:47;98519.50;;;9.03;92.71
53719;BME280;39616;48.872;9.390;2023-12-28T13:18:17;98516.28;;;9.01;94.40
53719;BME280;39616;48.872;9.390;2023-12-28T13:20:48;98510.91;;;8.95;92.10
53719;BME280;39616;48.872;9.390;2023-12-28T13:23:18;98516.28;;;9.01;91.82
53719;BME280;39616;48.872;9.390;2023-12-28T13:25:48;98514.09;;;9.03;92.72
53719;BME280;39616;48.872;9.390;2023-12-28T13:28:18;98519.47;;;9.08;92.82
53719;BME280;39616;48.872;9.390;2023-12-28T13:30:49;98519.75;;;9.06;92.07
53719;BME280;39616;48.872;9.390;2023-12-28T13:33:21;98525.97;;;9.07;92.81
53719;BME280;39616;48.872;9.390;2023-12-28T13:35:52;98522.47;;;9.06;91.51
53719;BME280;39616;48.872;9.390;2023-12-28T13:38:22;98512.44;;;9.07;92.17